B21HL ZUTF-ZGSZ
Flight info
| Callsign | B21HL |
|---|---|
| Flight time | N/A |
| Altitude | 39100 |
| Route | ATVAX7D ATVAX W234 NIXID B330 KWE W181 DUDIT A599 POU W7 SAREX SAREX4 |
| Aircraft | E190/M-SDE1E2E3FGHIJ3J4J7P2RWXY/LB1D1G1 |
Departure
| Time | 2026-05-06 12:38 |
|---|---|
| Airport | Chengdu Tianfu International Airport (ZUTF) |
Arrival
| Time | N/A |
|---|---|
| Airport | Shenzhen Bao'an International Airport (ZGSZ) |
| Time | Latitude | Longitude | Altitude | Speed | Heading |
|---|---|---|---|---|---|
| 2026-05-06 12:23 | 30.31963 | 104.45937 | 1459 ft | 0 kts | 291° |
| 2026-05-06 12:32 | 30.31957 | 104.45953 | 1459 ft | 2 kts | 291° |
| 2026-05-06 12:32 | 30.31952 | 104.45969 | 1459 ft | 2 kts | 291° |
| 2026-05-06 12:33 | 30.31948 | 104.45981 | 1459 ft | 2 kts | 289° |
| 2026-05-06 12:33 | 30.31947 | 104.45998 | 1459 ft | 2 kts | 252° |
| 2026-05-06 12:33 | 30.31954 | 104.46013 | 1459 ft | 2 kts | 224° |
| 2026-05-06 12:33 | 30.31963 | 104.46020 | 1459 ft | 0 kts | 204° |
| 2026-05-06 12:34 | 30.31970 | 104.46023 | 1459 ft | 0 kts | 201° |
| 2026-05-06 12:35 | 30.31968 | 104.46022 | 1459 ft | 0 kts | 200° |
| 2026-05-06 12:35 | 30.31958 | 104.46018 | 1459 ft | 4 kts | 199° |
| 2026-05-06 12:35 | 30.31880 | 104.45984 | 1459 ft | 13 kts | 202° |
| 2026-05-06 12:36 | 30.31789 | 104.45942 | 1459 ft | 14 kts | 201° |
| 2026-05-06 12:36 | 30.31715 | 104.45971 | 1459 ft | 14 kts | 113° |
| 2026-05-06 12:36 | 30.31678 | 104.46066 | 1459 ft | 8 kts | 144° |
| 2026-05-06 12:36 | 30.31640 | 104.46062 | 1459 ft | 6 kts | 197° |
| 2026-05-06 12:37 | 30.31590 | 104.46038 | 1459 ft | 9 kts | 201° |
| 2026-05-06 12:37 | 30.31522 | 104.46008 | 1459 ft | 10 kts | 196° |
| 2026-05-06 12:37 | 30.31495 | 104.46042 | 1459 ft | 5 kts | 107° |
| 2026-05-06 12:37 | 30.31491 | 104.46056 | 1459 ft | 0 kts | 110° |
| 2026-05-06 12:38 | 30.31441 | 104.46204 | 1459 ft | 55 kts | 112° |
| 2026-05-06 12:38 | 30.31207 | 104.46870 | 1459 ft | 121 kts | 112° |
| 2026-05-06 12:38 | 30.30826 | 104.47934 | 1672 ft | 149 kts | 110° |
| 2026-05-06 12:38 | 30.30441 | 104.48994 | 2314 ft | 146 kts | 110° |
| 2026-05-06 12:39 | 30.29993 | 104.50092 | 2809 ft | 155 kts | 108° |
| 2026-05-06 12:39 | 30.29540 | 104.51258 | 3355 ft | 171 kts | 105° |
| 2026-05-06 12:39 | 30.29080 | 104.52651 | 3707 ft | 202 kts | 103° |
| 2026-05-06 12:39 | 30.28546 | 104.54256 | 4171 ft | 230 kts | 104° |
| 2026-05-06 12:40 | 30.27941 | 104.56016 | 4835 ft | 250 kts | 105° |
| 2026-05-06 12:40 | 30.27265 | 104.57943 | 5549 ft | 268 kts | 105° |
| 2026-05-06 12:40 | 30.26551 | 104.59959 | 6540 ft | 273 kts | 104° |
| 2026-05-06 12:40 | 30.25839 | 104.61965 | 7571 ft | 275 kts | 104° |
| 2026-05-06 12:41 | 30.25112 | 104.64011 | 8527 ft | 278 kts | 104° |
| 2026-05-06 12:41 | 30.24384 | 104.66056 | 9471 ft | 281 kts | 104° |
| 2026-05-06 12:41 | 30.23640 | 104.68149 | 10339 ft | 286 kts | 105° |
| 2026-05-06 12:41 | 30.22876 | 104.70297 | 11009 ft | 298 kts | 107° |
| 2026-05-06 12:42 | 30.22069 | 104.72562 | 11584 ft | 313 kts | 108° |
| 2026-05-06 12:42 | 30.21211 | 104.74964 | 12129 ft | 328 kts | 109° |
| 2026-05-06 12:42 | 30.20343 | 104.77392 | 12798 ft | 337 kts | 110° |
| 2026-05-06 12:42 | 30.19312 | 104.79840 | 13506 ft | 346 kts | 126° |
| 2026-05-06 12:43 | 30.17479 | 104.81646 | 14254 ft | 351 kts | 153° |
| 2026-05-06 12:43 | 30.15130 | 104.82371 | 15120 ft | 350 kts | 173° |
| 2026-05-06 12:43 | 30.12760 | 104.82739 | 16012 ft | 348 kts | 172° |
| 2026-05-06 12:43 | 30.10371 | 104.83131 | 16855 ft | 347 kts | 172° |
| 2026-05-06 12:44 | 30.07984 | 104.83531 | 17608 ft | 349 kts | 172° |
| 2026-05-06 12:44 | 30.05561 | 104.83940 | 18282 ft | 353 kts | 173° |
| 2026-05-06 12:44 | 30.03117 | 104.84354 | 18883 ft | 359 kts | 173° |
| 2026-05-06 12:44 | 30.00621 | 104.84777 | 19464 ft | 365 kts | 174° |
| 2026-05-06 12:45 | 29.98106 | 104.85204 | 20088 ft | 369 kts | 174° |
| 2026-05-06 12:45 | 29.95554 | 104.85637 | 20714 ft | 372 kts | 174° |
| 2026-05-06 12:45 | 29.90530 | 104.87334 | 21851 ft | 384 kts | 166° |
| 2026-05-06 12:46 | 29.87976 | 104.88294 | 22384 ft | 389 kts | 166° |
| 2026-05-06 12:46 | 29.85380 | 104.89267 | 22896 ft | 394 kts | 166° |
| 2026-05-06 12:46 | 29.82773 | 104.90243 | 23424 ft | 398 kts | 166° |
| 2026-05-06 12:46 | 29.80102 | 104.91245 | 23950 ft | 402 kts | 166° |
| 2026-05-06 12:47 | 29.77449 | 104.92237 | 24483 ft | 406 kts | 167° |
| 2026-05-06 12:47 | 29.74758 | 104.93243 | 25028 ft | 408 kts | 167° |
| 2026-05-06 12:47 | 29.72038 | 104.94260 | 25523 ft | 412 kts | 167° |
| 2026-05-06 12:47 | 29.69293 | 104.95287 | 25997 ft | 416 kts | 167° |
| 2026-05-06 12:48 | 29.66541 | 104.96313 | 26476 ft | 420 kts | 167° |
| 2026-05-06 12:48 | 29.63773 | 104.97347 | 26959 ft | 422 kts | 167° |
| 2026-05-06 12:48 | 29.60923 | 104.98410 | 27391 ft | 427 kts | 167° |
| 2026-05-06 12:48 | 29.58125 | 104.99454 | 27830 ft | 430 kts | 167° |
| 2026-05-06 12:49 | 29.55266 | 105.00519 | 28274 ft | 433 kts | 168° |
| 2026-05-06 12:49 | 29.52377 | 105.01595 | 28682 ft | 437 kts | 167° |
| 2026-05-06 12:49 | 29.49474 | 105.02683 | 29100 ft | 441 kts | 167° |
| 2026-05-06 12:49 | 29.46541 | 105.03816 | 29523 ft | 444 kts | 167° |
| 2026-05-06 12:50 | 29.43630 | 105.04939 | 29926 ft | 448 kts | 167° |
| 2026-05-06 12:50 | 29.40678 | 105.06075 | 30349 ft | 450 kts | 167° |
| 2026-05-06 12:50 | 29.37687 | 105.07225 | 30810 ft | 452 kts | 167° |
| 2026-05-06 12:50 | 29.34712 | 105.08369 | 31265 ft | 453 kts | 167° |
| 2026-05-06 12:51 | 29.31707 | 105.09524 | 31690 ft | 455 kts | 167° |
| 2026-05-06 12:51 | 29.28719 | 105.10671 | 32074 ft | 457 kts | 167° |
| 2026-05-06 12:51 | 29.25693 | 105.11832 | 32453 ft | 460 kts | 167° |
| 2026-05-06 12:51 | 29.22634 | 105.13005 | 32780 ft | 463 kts | 167° |
| 2026-05-06 12:52 | 29.19562 | 105.14181 | 33182 ft | 465 kts | 167° |
| 2026-05-06 12:52 | 29.16482 | 105.15359 | 33546 ft | 467 kts | 167° |
| 2026-05-06 12:52 | 29.13348 | 105.16557 | 33845 ft | 471 kts | 167° |
| 2026-05-06 12:52 | 29.10200 | 105.17760 | 34131 ft | 475 kts | 167° |
| 2026-05-06 12:53 | 29.07084 | 105.18949 | 34405 ft | 478 kts | 167° |
| 2026-05-06 12:53 | 29.03893 | 105.20166 | 34687 ft | 481 kts | 167° |
| 2026-05-06 12:53 | 29.00688 | 105.21388 | 35002 ft | 484 kts | 167° |
| 2026-05-06 12:53 | 28.97494 | 105.22605 | 35270 ft | 486 kts | 167° |
| 2026-05-06 12:54 | 28.94258 | 105.23838 | 35553 ft | 489 kts | 167° |
| 2026-05-06 12:54 | 28.91032 | 105.25065 | 35832 ft | 490 kts | 167° |
| 2026-05-06 12:54 | 28.87751 | 105.26312 | 36072 ft | 493 kts | 167° |
| 2026-05-06 12:54 | 28.84494 | 105.27550 | 36326 ft | 494 kts | 167° |
| 2026-05-06 12:55 | 28.81218 | 105.28794 | 36525 ft | 496 kts | 167° |
| 2026-05-06 12:55 | 28.77916 | 105.30046 | 36697 ft | 499 kts | 167° |
| 2026-05-06 12:55 | 28.74620 | 105.31297 | 36952 ft | 499 kts | 167° |
| 2026-05-06 12:55 | 28.71324 | 105.32546 | 37222 ft | 499 kts | 167° |
| 2026-05-06 12:56 | 28.68072 | 105.33778 | 37633 ft | 496 kts | 167° |
| 2026-05-06 12:56 | 28.64785 | 105.35022 | 38026 ft | 493 kts | 167° |
| 2026-05-06 12:56 | 28.61511 | 105.36259 | 38417 ft | 491 kts | 168° |
| 2026-05-06 12:56 | 28.58282 | 105.37480 | 38695 ft | 492 kts | 168° |
| 2026-05-06 12:57 | 28.55042 | 105.38704 | 38981 ft | 490 kts | 168° |
| 2026-05-06 12:57 | 28.48615 | 105.41129 | 39036 ft | 488 kts | 168° |
| 2026-05-06 12:58 | 28.42146 | 105.43566 | 39062 ft | 489 kts | 167° |
| 2026-05-06 12:58 | 28.35673 | 105.46003 | 39062 ft | 491 kts | 168° |
| 2026-05-06 12:59 | 28.29128 | 105.48462 | 39085 ft | 495 kts | 167° |
| 2026-05-06 12:59 | 28.22574 | 105.50924 | 39107 ft | 495 kts | 167° |
| 2026-05-06 13:00 | 28.16028 | 105.53378 | 39101 ft | 494 kts | 167° |
| 2026-05-06 13:00 | 28.09518 | 105.55815 | 39098 ft | 493 kts | 167° |
| 2026-05-06 13:01 | 28.02901 | 105.57790 | 39102 ft | 485 kts | 178° |
| 2026-05-06 13:01 | 27.96205 | 105.58836 | 39098 ft | 484 kts | 178° |
| 2026-05-06 13:02 | 27.89525 | 105.59891 | 39084 ft | 485 kts | 178° |
| 2026-05-06 13:02 | 27.82865 | 105.60957 | 39078 ft | 485 kts | 175° |
| 2026-05-06 13:03 | 27.76339 | 105.63440 | 39083 ft | 502 kts | 158° |
| 2026-05-06 13:03 | 27.70228 | 105.67269 | 39070 ft | 502 kts | 157° |
| 2026-05-06 13:04 | 27.63984 | 105.70818 | 39089 ft | 499 kts | 160° |
| 2026-05-06 13:04 | 27.57739 | 105.74187 | 39109 ft | 499 kts | 160° |
| 2026-05-06 13:05 | 27.51452 | 105.77583 | 39134 ft | 499 kts | 160° |
| 2026-05-06 13:05 | 27.45200 | 105.80957 | 39151 ft | 499 kts | 160° |
| 2026-05-06 13:06 | 27.38941 | 105.84330 | 39148 ft | 497 kts | 160° |
| 2026-05-06 13:06 | 27.32708 | 105.87685 | 39143 ft | 498 kts | 160° |
| 2026-05-06 13:07 | 27.26414 | 105.91067 | 39156 ft | 499 kts | 160° |
| 2026-05-06 13:07 | 27.20151 | 105.94430 | 39160 ft | 497 kts | 160° |
| 2026-05-06 13:08 | 27.13897 | 105.97784 | 39167 ft | 498 kts | 160° |
| 2026-05-06 13:08 | 27.07706 | 106.01162 | 39129 ft | 500 kts | 155° |
| 2026-05-06 13:09 | 27.02162 | 106.05951 | 39136 ft | 509 kts | 138° |
| 2026-05-06 13:09 | 26.97819 | 106.12304 | 39119 ft | 516 kts | 129° |
| 2026-05-06 13:10 | 26.93563 | 106.18738 | 39117 ft | 514 kts | 130° |
| 2026-05-06 13:10 | 26.89225 | 106.25173 | 39115 ft | 516 kts | 130° |
| 2026-05-06 13:11 | 26.84912 | 106.31556 | 39120 ft | 517 kts | 130° |
| 2026-05-06 13:11 | 26.80569 | 106.37975 | 39118 ft | 518 kts | 130° |
| 2026-05-06 13:12 | 26.76221 | 106.44393 | 39114 ft | 516 kts | 130° |
| 2026-05-06 13:12 | 26.71888 | 106.50779 | 39116 ft | 517 kts | 130° |
| 2026-05-06 13:13 | 26.67535 | 106.57185 | 39108 ft | 517 kts | 130° |
| 2026-05-06 13:13 | 26.63189 | 106.63573 | 39100 ft | 514 kts | 130° |
| 2026-05-06 13:14 | 26.58834 | 106.69965 | 39086 ft | 517 kts | 130° |
| 2026-05-06 13:14 | 26.54480 | 106.76344 | 39084 ft | 516 kts | 130° |
| 2026-05-06 13:15 | 26.49762 | 106.82322 | 39087 ft | 512 kts | 139° |
| 2026-05-06 13:15 | 26.44692 | 106.87896 | 39078 ft | 513 kts | 139° |
| 2026-05-06 13:16 | 26.39599 | 106.93489 | 39088 ft | 514 kts | 139° |
| 2026-05-06 13:16 | 26.34497 | 106.99087 | 39099 ft | 512 kts | 139° |
| 2026-05-06 13:17 | 26.29428 | 107.04639 | 39109 ft | 511 kts | 138° |
| 2026-05-06 13:17 | 26.24336 | 107.10238 | 39111 ft | 512 kts | 138° |
| 2026-05-06 13:18 | 26.19268 | 107.15803 | 39101 ft | 512 kts | 138° |
| 2026-05-06 13:18 | 26.14212 | 107.21348 | 39086 ft | 512 kts | 138° |
| 2026-05-06 13:19 | 26.09125 | 107.26919 | 39079 ft | 512 kts | 138° |
| 2026-05-06 13:19 | 26.04048 | 107.32472 | 39060 ft | 511 kts | 138° |
| 2026-05-06 13:20 | 25.98950 | 107.38042 | 39053 ft | 511 kts | 138° |
| 2026-05-06 13:20 | 25.93868 | 107.43587 | 39046 ft | 510 kts | 138° |
| 2026-05-06 13:21 | 25.88812 | 107.49097 | 39049 ft | 509 kts | 138° |
| 2026-05-06 13:21 | 25.83754 | 107.54600 | 39053 ft | 510 kts | 138° |
| 2026-05-06 13:22 | 25.78651 | 107.60147 | 39061 ft | 511 kts | 138° |
| 2026-05-06 13:22 | 25.73608 | 107.65621 | 39064 ft | 509 kts | 139° |
| 2026-05-06 13:23 | 25.68548 | 107.71143 | 39048 ft | 509 kts | 139° |
| 2026-05-06 13:23 | 25.63497 | 107.76673 | 39041 ft | 510 kts | 139° |
| 2026-05-06 13:24 | 25.58448 | 107.82194 | 39036 ft | 510 kts | 139° |
| 2026-05-06 13:24 | 25.53384 | 107.87724 | 39034 ft | 510 kts | 138° |
| 2026-05-06 13:25 | 25.48065 | 107.92929 | 39038 ft | 506 kts | 150° |
| 2026-05-06 13:25 | 25.41856 | 107.96384 | 39032 ft | 495 kts | 165° |
| 2026-05-06 13:26 | 25.35212 | 107.97920 | 39038 ft | 482 kts | 183° |
| 2026-05-06 13:26 | 25.28498 | 107.98436 | 39038 ft | 486 kts | 179° |
| 2026-05-06 13:27 | 25.21780 | 107.99232 | 39038 ft | 486 kts | 179° |
| 2026-05-06 13:27 | 25.15033 | 108.00053 | 39025 ft | 486 kts | 179° |
| 2026-05-06 13:28 | 25.08260 | 108.00878 | 39012 ft | 489 kts | 179° |
| 2026-05-06 13:28 | 25.01509 | 108.01699 | 38998 ft | 487 kts | 179° |
| 2026-05-06 13:29 | 24.94770 | 108.02518 | 38991 ft | 486 kts | 179° |
| 2026-05-06 13:29 | 24.88008 | 108.03339 | 38991 ft | 486 kts | 179° |
| 2026-05-06 13:30 | 24.81260 | 108.04158 | 38991 ft | 485 kts | 179° |
| 2026-05-06 13:30 | 24.74491 | 108.04977 | 38994 ft | 487 kts | 179° |
| 2026-05-06 13:31 | 24.67734 | 108.05795 | 38993 ft | 489 kts | 179° |
| 2026-05-06 13:31 | 24.60962 | 108.06613 | 38999 ft | 488 kts | 179° |
| 2026-05-06 13:32 | 24.54197 | 108.07430 | 38996 ft | 488 kts | 179° |
| 2026-05-06 13:32 | 24.47455 | 108.08250 | 39003 ft | 487 kts | 179° |
| 2026-05-06 13:33 | 24.40671 | 108.09075 | 38996 ft | 488 kts | 178° |
| 2026-05-06 13:33 | 24.33899 | 108.09898 | 38991 ft | 488 kts | 178° |
| 2026-05-06 13:34 | 24.27130 | 108.10720 | 38989 ft | 488 kts | 178° |
| 2026-05-06 13:34 | 24.20352 | 108.11542 | 38986 ft | 489 kts | 178° |
| 2026-05-06 13:35 | 24.13562 | 108.12364 | 38987 ft | 487 kts | 178° |
| 2026-05-06 13:35 | 24.06776 | 108.13184 | 38986 ft | 488 kts | 178° |
| 2026-05-06 13:36 | 24.00016 | 108.14004 | 38992 ft | 489 kts | 177° |
| 2026-05-06 13:36 | 23.93400 | 108.16019 | 38995 ft | 501 kts | 159° |
| 2026-05-06 13:37 | 23.87510 | 108.20180 | 39000 ft | 508 kts | 140° |
| 2026-05-06 13:37 | 23.82944 | 108.26079 | 39007 ft | 512 kts | 124° |
| 2026-05-06 13:38 | 23.79953 | 108.33127 | 39004 ft | 514 kts | 105° |
| 2026-05-06 13:38 | 23.78977 | 108.40823 | 39009 ft | 513 kts | 88° |
| 2026-05-06 13:39 | 23.79957 | 108.48453 | 39012 ft | 511 kts | 79° |
| 2026-05-06 13:39 | 23.80004 | 108.56252 | 39018 ft | 514 kts | 96° |
| 2026-05-06 13:40 | 23.79380 | 108.63989 | 39013 ft | 514 kts | 92° |
| 2026-05-06 13:40 | 23.78914 | 108.71772 | 39005 ft | 514 kts | 93° |
| 2026-05-06 13:41 | 23.78455 | 108.79537 | 39005 ft | 513 kts | 93° |
| 2026-05-06 13:41 | 23.77993 | 108.87296 | 38999 ft | 514 kts | 93° |
| 2026-05-06 13:42 | 23.77527 | 108.95056 | 38994 ft | 513 kts | 93° |
| 2026-05-06 13:42 | 23.77056 | 109.02841 | 38991 ft | 512 kts | 93° |
| 2026-05-06 13:43 | 23.76584 | 109.10569 | 38992 ft | 513 kts | 93° |
| 2026-05-06 13:43 | 23.75609 | 109.18269 | 39009 ft | 513 kts | 102° |
| 2026-05-06 13:44 | 23.74070 | 109.25917 | 38998 ft | 514 kts | 102° |
| 2026-05-06 13:44 | 23.72538 | 109.33518 | 38998 ft | 513 kts | 102° |
| 2026-05-06 13:45 | 23.71002 | 109.41119 | 39005 ft | 512 kts | 102° |
| 2026-05-06 13:45 | 23.68693 | 109.52507 | 39000 ft | 512 kts | 102° |
| 2026-05-06 13:46 | 23.67156 | 109.60063 | 39003 ft | 513 kts | 102° |
| 2026-05-06 13:46 | 23.65602 | 109.67636 | 38997 ft | 512 kts | 102° |
| 2026-05-06 13:47 | 23.64038 | 109.75218 | 39006 ft | 512 kts | 102° |
| 2026-05-06 13:47 | 23.62474 | 109.82781 | 39025 ft | 512 kts | 102° |
| 2026-05-06 13:48 | 23.60901 | 109.90369 | 39032 ft | 511 kts | 102° |
| 2026-05-06 13:48 | 23.59332 | 109.97916 | 39041 ft | 511 kts | 102° |
| 2026-05-06 13:49 | 23.57762 | 110.05452 | 39045 ft | 511 kts | 102° |
| 2026-05-06 13:49 | 23.56179 | 110.13030 | 39035 ft | 511 kts | 102° |
| 2026-05-06 13:50 | 23.54597 | 110.20577 | 39023 ft | 511 kts | 102° |
| 2026-05-06 13:50 | 23.53022 | 110.28082 | 39011 ft | 512 kts | 102° |
| 2026-05-06 13:51 | 23.51434 | 110.35626 | 39008 ft | 511 kts | 102° |
| 2026-05-06 13:51 | 23.49889 | 110.43214 | 39009 ft | 511 kts | 102° |
| 2026-05-06 13:52 | 23.48356 | 110.50753 | 39011 ft | 511 kts | 102° |
| 2026-05-06 13:52 | 23.46815 | 110.58312 | 39016 ft | 511 kts | 102° |
| 2026-05-06 13:53 | 23.45268 | 110.65879 | 39017 ft | 511 kts | 102° |
| 2026-05-06 13:53 | 23.43725 | 110.73383 | 39010 ft | 511 kts | 102° |
| 2026-05-06 13:54 | 23.42132 | 110.80940 | 39012 ft | 511 kts | 102° |
| 2026-05-06 13:54 | 23.40542 | 110.88477 | 39017 ft | 512 kts | 102° |
| 2026-05-06 13:55 | 23.38949 | 110.96001 | 39018 ft | 511 kts | 102° |
| 2026-05-06 13:55 | 23.37348 | 111.03548 | 39020 ft | 512 kts | 102° |
| 2026-05-06 13:56 | 23.35753 | 111.11050 | 39021 ft | 511 kts | 102° |
| 2026-05-06 13:56 | 23.34176 | 111.18604 | 39026 ft | 510 kts | 102° |
| 2026-05-06 13:57 | 23.32639 | 111.26135 | 39025 ft | 511 kts | 102° |
| 2026-05-06 13:57 | 23.31088 | 111.33707 | 39024 ft | 512 kts | 102° |
| 2026-05-06 13:58 | 23.29544 | 111.41222 | 39033 ft | 512 kts | 102° |
| 2026-05-06 13:58 | 23.27995 | 111.48745 | 39025 ft | 511 kts | 102° |
| 2026-05-06 13:59 | 23.26425 | 111.56280 | 39036 ft | 512 kts | 102° |
| 2026-05-06 13:59 | 23.24830 | 111.63822 | 39047 ft | 511 kts | 102° |
| 2026-05-06 14:00 | 23.23231 | 111.71368 | 39038 ft | 511 kts | 103° |